createdAt,value
2023-04-22T00:01:06.805Z,101452.38
2023-04-22T00:03:34.216Z,101446.31
2023-04-22T00:06:01.594Z,101439.28
2023-04-22T00:08:28.621Z,101428.00
2023-04-22T00:10:56.611Z,101448.88
2023-04-22T00:13:23.526Z,101440.19
2023-04-22T00:15:51.226Z,101438.41
2023-04-22T00:18:18.303Z,101433.19
2023-04-22T00:20:45.709Z,101424.50
2023-04-22T00:23:13.501Z,101429.53
2023-04-22T00:25:40.904Z,101426.78
2023-04-22T00:28:07.938Z,101418.59
2023-04-22T00:30:36.127Z,101425.91
2023-04-22T00:33:03.090Z,101420.34
2023-04-22T00:35:30.141Z,101420.03
2023-04-22T00:37:57.048Z,101417.38
2023-04-22T00:40:23.999Z,101416.56
2023-04-22T00:42:51.331Z,101409.59
2023-04-22T00:45:19.962Z,101407.25
2023-04-22T00:47:48.435Z,101408.19
2023-04-22T00:50:16.222Z,101407.38
2023-04-22T00:52:43.171Z,101403.97
2023-04-22T00:55:11.287Z,101401.38
2023-04-22T00:57:39.478Z,101404.97
2023-04-22T01:00:09.815Z,101384.84
2023-04-22T01:02:38.795Z,101398.00
2023-04-22T01:05:08.486Z,101392.81
2023-04-22T01:07:36.492Z,101398.00
2023-04-22T01:10:04.832Z,101385.81
2023-04-22T01:12:31.767Z,101392.72
2023-04-22T01:14:58.691Z,101398.75
2023-04-22T01:17:25.813Z,101393.50
2023-04-22T01:19:53.347Z,101401.28
2023-04-22T01:22:21.426Z,101396.03
2023-04-22T01:24:49.170Z,101392.47
2023-04-22T01:27:16.188Z,101395.88
2023-04-22T01:29:43.529Z,101389.72
2023-04-22T01:32:11.017Z,101393.09
2023-04-22T01:34:38.099Z,101389.47
2023-04-22T01:37:06.559Z,101386.81
2023-04-22T01:39:33.713Z,101388.47
2023-04-22T01:42:02.111Z,101378.03
2023-04-22T01:44:29.165Z,101372.81
2023-04-22T01:46:56.310Z,101375.38
2023-04-22T01:49:23.216Z,101371.81
2023-04-22T01:51:51.054Z,101377.84
2023-04-22T01:54:19.238Z,101365.66
2023-04-22T01:56:54.604Z,101365.53
2023-04-22T01:59:22.180Z,101361.88
2023-04-22T02:01:50.432Z,101360.94
2023-04-22T02:04:18.421Z,101354.84
2023-04-22T02:06:45.469Z,101354.84
2023-04-22T02:09:12.403Z,101351.38
2023-04-22T02:11:39.275Z,101351.31
2023-04-22T02:14:06.667Z,101349.56
2023-04-22T02:16:33.697Z,101346.13
2023-04-22T02:19:00.691Z,101345.28
2023-04-22T02:21:32.579Z,101345.19
2023-04-22T02:23:59.502Z,101346.06
2023-04-22T02:26:28.728Z,101336.41
2023-04-22T02:28:55.635Z,101333.81
2023-04-22T02:31:22.572Z,101341.53
2023-04-22T02:33:49.740Z,101334.69
2023-04-22T02:36:17.085Z,101329.44
2023-04-22T02:38:44.015Z,101328.56
2023-04-22T02:41:11.348Z,101326.78
2023-04-22T02:43:38.273Z,101327.63
2023-04-22T02:46:05.244Z,101327.59
2023-04-22T02:48:32.210Z,101326.66
2023-04-22T02:50:59.097Z,101318.88
2023-04-22T02:53:26.024Z,101324.00
2023-04-22T02:55:55.616Z,101322.25
2023-04-22T02:58:22.576Z,101314.34
2023-04-22T03:00:49.546Z,101306.53
2023-04-22T03:03:16.700Z,101307.31
2023-04-22T03:05:43.745Z,101309.81
2023-04-22T03:08:10.960Z,101307.22
2023-04-22T03:10:37.880Z,101305.44
2023-04-22T03:13:04.818Z,101296.75
2023-04-22T03:15:31.898Z,101294.16
2023-04-22T03:17:58.814Z,101292.34
2023-04-22T03:20:26.146Z,101294.00
2023-04-22T03:22:54.079Z,101279.06
2023-04-22T03:25:21.750Z,101288.69
2023-04-22T03:27:54.890Z,101291.19
2023-04-22T03:30:21.918Z,101290.31
2023-04-22T03:32:49.037Z,101297.16
2023-04-22T03:35:22.144Z,101289.34
2023-04-22T03:37:51.178Z,101280.56
2023-04-22T03:40:23.490Z,101292.72
2023-04-22T03:42:50.450Z,101289.25
2023-04-22T03:45:19.843Z,101294.38
2023-04-22T03:47:53.809Z,101289.13
2023-04-22T03:50:26.527Z,101289.91
2023-04-22T03:52:54.523Z,101288.16
2023-04-22T03:55:21.740Z,101286.38
2023-04-22T03:57:51.773Z,101284.66
2023-04-22T04:00:19.483Z,101285.47
2023-04-22T04:02:52.664Z,101277.63
2023-04-22T04:05:24.597Z,101296.75
2023-04-22T04:07:51.593Z,101287.22
2023-04-22T04:10:18.515Z,101292.56
2023-04-22T04:12:45.975Z,101284.94
2023-04-22T04:15:12.989Z,101293.69
2023-04-22T04:17:40.622Z,101290.31
2023-04-22T04:20:08.818Z,101294.00
2023-04-22T04:22:36.588Z,101295.06
2023-04-22T04:25:07.049Z,101290.16
2023-04-22T04:27:41.527Z,101289.56
2023-04-22T04:30:11.300Z,101289.03
2023-04-22T04:32:43.033Z,101282.47
2023-04-22T04:35:15.278Z,101288.84
2023-04-22T04:37:47.304Z,101278.78
2023-04-22T04:40:15.134Z,101263.22
2023-04-22T04:42:55.697Z,101278.50
2023-04-22T04:45:26.539Z,101276.03
2023-04-22T04:47:54.907Z,101284.16
2023-04-22T04:50:30.358Z,101284.38
2023-04-22T04:53:01.521Z,101280.28
2023-04-22T04:55:34.860Z,101282.22
2023-04-22T04:58:06.754Z,101287.59
2023-04-22T05:00:33.662Z,101281.69
2023-04-22T05:03:01.172Z,101278.34
2023-04-22T05:05:29.686Z,101274.88
2023-04-22T05:07:57.417Z,101261.75
2023-04-22T05:10:27.187Z,101268.72
2023-04-22T05:12:54.567Z,101260.06
2023-04-22T05:15:24.280Z,101268.75
2023-04-22T05:17:51.691Z,101270.56
2023-04-22T05:20:18.678Z,101270.59
2023-04-22T05:22:45.958Z,101279.25
2023-04-22T05:25:14.058Z,101273.31
2023-04-22T05:27:49.019Z,101269.06
2023-04-22T05:30:18.467Z,101276.97
2023-04-22T05:32:45.571Z,101271.88
2023-04-22T05:35:12.605Z,101271.97
2023-04-22T05:37:41.101Z,101260.81
2023-04-22T05:40:08.793Z,101269.56
2023-04-22T05:42:35.846Z,101274.03
2023-04-22T05:45:03.045Z,101273.31
2023-04-22T05:47:30.730Z,101273.47
2023-04-22T05:49:58.138Z,101263.22
2023-04-22T05:52:34.239Z,101262.56
2023-04-22T05:55:09.540Z,101263.59
2023-04-22T05:57:36.477Z,101249.84
2023-04-22T06:00:09.718Z,101254.38
2023-04-22T06:02:49.683Z,101258.13
2023-04-22T06:05:17.954Z,101255.72
2023-04-22T06:07:44.944Z,101258.50
2023-04-22T06:10:11.931Z,101250.00
2023-04-22T06:12:38.867Z,101250.19
2023-04-22T06:15:06.622Z,101250.34
2023-04-22T06:17:33.628Z,101242.69
2023-04-22T06:20:00.799Z,101242.00
2023-04-22T06:22:27.818Z,101250.78
2023-04-22T06:24:54.742Z,101245.78
2023-04-22T06:27:21.680Z,101245.03
2023-04-22T06:29:48.600Z,101247.78
2023-04-22T06:32:15.947Z,101239.22
2023-04-22T06:34:42.905Z,101232.34
2023-04-22T06:37:09.884Z,101241.22
2023-04-22T06:39:36.920Z,101234.31
2023-04-22T06:42:22.262Z,101235.34
2023-04-22T06:45:12.623Z,101231.06
2023-04-22T06:47:48.424Z,101234.63
2023-04-22T06:50:20.141Z,101237.34
2023-04-22T06:53:06.825Z,101229.53
2023-04-22T06:55:35.716Z,101233.94
2023-04-22T06:58:02.751Z,101221.81
2023-04-22T07:00:29.727Z,101225.34
2023-04-22T07:02:58.634Z,101221.91
2023-04-22T07:05:25.689Z,101228.00
2023-04-22T07:07:52.924Z,101225.41
2023-04-22T07:10:22.642Z,101219.28
2023-04-22T07:13:18.287Z,101207.94
2023-04-22T07:15:46.330Z,101211.41
2023-04-22T07:18:13.242Z,101207.88
2023-04-22T07:20:40.268Z,101206.09
2023-04-22T07:23:07.143Z,101210.47
2023-04-22T07:25:34.130Z,101207.78
2023-04-22T07:28:01.038Z,101199.84
2023-04-22T07:30:28.066Z,101206.78
2023-04-22T07:32:55.462Z,101215.47
2023-04-22T07:35:22.390Z,101211.03
2023-04-22T07:37:49.264Z,101214.47
2023-04-22T07:40:16.382Z,101210.03
2023-04-22T07:42:43.271Z,101208.22
2023-04-22T07:45:10.365Z,101214.31
2023-04-22T07:47:37.278Z,101203.72
2023-04-22T07:50:04.806Z,101207.13
2023-04-22T07:52:31.802Z,101191.28
2023-04-22T07:54:58.711Z,101194.66
2023-04-22T07:57:25.874Z,101184.03
2023-04-22T07:59:53.119Z,101193.53
2023-04-22T08:02:20.176Z,101183.81
2023-04-22T08:04:47.194Z,101189.81
2023-04-22T08:07:30.947Z,101190.59
2023-04-22T08:10:00.274Z,101188.66
2023-04-22T08:12:27.213Z,101183.31
2023-04-22T08:14:54.339Z,101182.28
2023-04-22T08:17:22.252Z,101179.50
2023-04-22T08:19:49.947Z,101173.22
2023-04-22T08:22:18.531Z,101161.81
2023-04-22T08:24:45.422Z,101165.06
2023-04-22T08:27:12.351Z,101165.78
2023-04-22T08:29:39.524Z,101162.13
2023-04-22T08:32:06.661Z,101152.41
2023-04-22T08:34:33.699Z,101153.13
2023-04-22T08:37:00.574Z,101153.84
2023-04-22T08:39:27.487Z,101155.41
2023-04-22T08:41:56.237Z,101156.06
2023-04-22T08:44:23.457Z,101148.00
2023-04-22T08:46:51.614Z,101148.69
2023-04-22T08:49:19.346Z,101148.50
2023-04-22T08:51:46.406Z,101156.25
2023-04-22T08:54:13.333Z,101146.34
2023-04-22T08:56:44.274Z,101141.81
2023-04-22T08:59:12.679Z,101145.13
2023-04-22T09:01:41.506Z,101152.03
2023-04-22T09:04:11.450Z,101144.88
2023-04-22T09:06:39.349Z,101138.50
2023-04-22T09:09:08.751Z,101146.09
2023-04-22T09:11:36.331Z,101145.03
2023-04-22T09:14:06.749Z,101137.00
2023-04-22T09:16:34.511Z,101135.94
2023-04-22T09:19:01.625Z,101131.28
2023-04-22T09:21:29.052Z,101133.81
2023-04-22T09:23:56.891Z,101129.28
2023-04-22T09:26:26.288Z,101130.78
2023-04-22T09:28:58.844Z,101112.97
2023-04-22T09:31:28.364Z,101120.69
2023-04-22T09:33:59.427Z,101117.06
2023-04-22T09:36:30.599Z,101094.13
2023-04-22T09:38:59.495Z,101116.66
2023-04-22T09:41:38.745Z,101105.13
2023-04-22T09:44:11.500Z,101104.84
2023-04-22T09:46:38.382Z,101102.03
2023-04-22T09:49:05.715Z,101102.84
2023-04-22T09:51:32.591Z,101100.81
2023-04-22T09:54:06.427Z,101097.16
2023-04-22T09:56:52.675Z,101090.00
2023-04-22T09:59:28.684Z,101088.78
2023-04-22T10:02:00.284Z,101085.06
2023-04-22T10:04:28.283Z,101090.16
2023-04-22T10:06:55.598Z,101084.78
2023-04-22T10:09:25.389Z,101080.16
2023-04-22T10:11:55.145Z,101071.31
2023-04-22T10:14:23.179Z,101084.25
2023-04-22T10:16:54.500Z,101063.94
2023-04-22T10:19:23.900Z,101075.19
2023-04-22T10:22:00.720Z,101061.66
2023-04-22T10:24:28.998Z,101058.81
2023-04-22T10:27:06.402Z,101053.38
2023-04-22T10:29:39.509Z,101054.22
2023-04-22T10:32:25.947Z,101048.81
2023-04-22T10:35:10.362Z,101047.75
2023-04-22T10:37:39.943Z,101051.09
2023-04-22T10:40:17.647Z,101040.38
2023-04-22T10:42:52.276Z,101033.16
2023-04-22T10:45:20.109Z,101035.59
2023-04-22T10:47:47.075Z,101033.69
2023-04-22T10:50:20.638Z,101025.63
2023-04-22T10:52:57.291Z,101020.16
2023-04-22T10:55:26.037Z,101018.25
2023-04-22T10:57:54.108Z,101020.75
2023-04-22T11:00:52.412Z,101016.28
2023-04-22T11:03:28.596Z,101020.47
2023-04-22T11:06:22.501Z,101022.97
2023-04-22T11:08:51.147Z,101012.34
2023-04-22T11:11:19.033Z,101004.97
2023-04-22T11:13:50.510Z,101016.22
2023-04-22T11:16:18.799Z,101013.38
2023-04-22T11:18:47.886Z,101006.09
2023-04-22T11:21:15.022Z,101013.84
2023-04-22T11:23:53.349Z,101015.50
2023-04-22T11:26:35.080Z,100995.97
2023-04-22T11:29:01.968Z,101005.34
2023-04-22T11:31:28.914Z,100986.56
2023-04-22T11:34:00.286Z,100997.88
2023-04-22T11:36:27.701Z,100988.91
2023-04-22T11:38:56.319Z,100992.16
2023-04-22T11:41:23.741Z,100986.72
2023-04-22T11:43:50.610Z,100989.03
2023-04-22T11:46:28.088Z,100986.25
2023-04-22T11:48:55.002Z,100980.06
2023-04-22T11:51:21.906Z,100976.44
2023-04-22T11:53:51.926Z,100975.41
2023-04-22T11:56:18.810Z,100976.97
2023-04-22T11:58:45.699Z,100976.00
2023-04-22T12:01:13.982Z,100966.13
2023-04-22T12:03:40.948Z,100966.84
2023-04-22T12:06:08.037Z,100963.16
2023-04-22T12:08:40.203Z,100958.56
2023-04-22T12:11:10.489Z,100947.91
2023-04-22T12:13:37.220Z,100951.28
2023-04-22T12:16:06.618Z,100947.63
2023-04-22T12:18:39.783Z,100934.34
2023-04-22T12:21:15.013Z,100950.84
2023-04-22T12:23:54.624Z,100944.53
2023-04-22T12:26:26.892Z,100944.34
2023-04-22T12:28:55.901Z,100939.78
2023-04-22T12:31:22.994Z,100935.09
2023-04-22T12:33:50.328Z,100941.13
2023-04-22T12:36:20.824Z,100930.19
2023-04-22T12:38:48.077Z,100937.19
2023-04-22T12:41:16.077Z,100935.31
2023-04-22T12:43:43.003Z,100927.34
2023-04-22T12:46:10.430Z,100907.28
2023-04-22T12:48:37.765Z,100920.13
2023-04-22T12:51:06.572Z,100909.41
2023-04-22T12:53:33.561Z,100919.84
2023-04-22T12:56:00.528Z,100908.16
2023-04-22T12:58:27.447Z,100908.94
2023-04-22T13:00:54.369Z,100900.69
2023-04-22T13:03:21.344Z,100905.78
2023-04-22T13:05:48.469Z,100895.00
2023-04-22T13:08:15.374Z,100900.91
2023-04-22T13:10:42.336Z,100899.84
2023-04-22T13:13:18.494Z,100890.97
2023-04-22T13:15:53.800Z,100893.53
2023-04-22T13:18:22.809Z,100889.88
2023-04-22T13:20:49.739Z,100881.78
2023-04-22T13:23:17.174Z,100884.28
2023-04-22T13:25:44.325Z,100881.47
2023-04-22T13:28:11.768Z,100869.13
2023-04-22T13:30:39.481Z,100870.63
2023-04-22T13:33:06.417Z,100872.28
2023-04-22T13:35:33.397Z,100874.94
2023-04-22T13:38:01.345Z,100865.16
2023-04-22T13:40:28.576Z,100855.38
2023-04-22T13:42:55.881Z,100855.00
2023-04-22T13:45:22.832Z,100860.19
2023-04-22T13:47:49.774Z,100861.00
2023-04-22T13:50:16.762Z,100850.47
2023-04-22T13:52:43.956Z,100845.94
2023-04-22T13:55:11.027Z,100847.59
2023-04-22T13:57:37.974Z,100848.41
2023-04-22T14:00:05.542Z,100838.59
2023-04-22T14:02:38.701Z,100844.66
2023-04-22T14:05:06.264Z,100828.81
2023-04-22T14:07:33.207Z,100839.34
2023-04-22T14:10:00.138Z,100835.78
2023-04-22T14:12:27.177Z,100828.81
2023-04-22T14:14:54.070Z,100835.09
2023-04-22T14:17:22.538Z,100825.41
2023-04-22T14:19:49.495Z,100823.66
2023-04-22T14:22:16.377Z,100819.28
2023-04-22T14:24:43.276Z,100816.63
2023-04-22T14:27:11.892Z,100811.38
2023-04-22T14:29:39.632Z,100811.22
2023-04-22T14:32:06.818Z,100805.03
2023-04-22T14:34:33.765Z,100803.34
2023-04-22T14:37:00.677Z,100806.00
2023-04-22T14:39:27.573Z,100802.38
2023-04-22T14:41:54.472Z,100807.53
2023-04-22T14:44:21.593Z,100800.47
2023-04-22T14:46:48.469Z,100803.97
2023-04-22T14:49:15.561Z,100801.22
2023-04-22T14:51:42.446Z,100796.69
2023-04-22T14:54:09.331Z,100791.47
2023-04-22T14:56:36.487Z,100793.09
2023-04-22T14:59:03.371Z,100802.78
2023-04-22T15:01:31.393Z,100787.63
2023-04-22T15:03:58.729Z,100788.47
2023-04-22T15:06:26.912Z,100790.13
2023-04-22T15:08:54.014Z,100787.22
2023-04-22T15:11:20.921Z,100775.56
2023-04-22T15:13:47.818Z,100773.53
2023-04-22T15:16:14.851Z,100773.25
2023-04-22T15:18:41.879Z,100773.19
2023-04-22T15:21:10.513Z,100767.78
2023-04-22T15:23:37.452Z,100770.44
2023-04-22T15:26:04.391Z,100762.38
2023-04-22T15:28:31.352Z,100763.09
2023-04-22T15:30:58.251Z,100752.34
2023-04-22T15:33:25.181Z,100759.31
2023-04-22T15:35:52.073Z,100754.78
2023-04-22T15:38:19.257Z,100747.63
2023-04-22T15:40:46.168Z,100752.91
2023-04-22T15:43:13.082Z,100748.34
2023-04-22T15:45:40.016Z,100747.50
2023-04-22T15:48:07.035Z,100744.66
2023-04-22T15:50:34.075Z,100744.66
2023-04-22T15:53:00.960Z,100740.13
2023-04-22T15:55:27.859Z,100739.19
2023-04-22T15:57:54.758Z,100740.03
2023-04-22T16:00:21.725Z,100738.38
2023-04-22T16:02:55.309Z,100743.88
2023-04-22T16:05:24.688Z,100731.84
2023-04-22T16:07:53.073Z,100725.13
2023-04-22T16:10:20.822Z,100722.78
2023-04-22T16:12:47.918Z,100719.53
2023-04-22T16:15:14.856Z,100717.06
2023-04-22T16:17:43.651Z,100712.81
2023-04-22T16:20:10.958Z,100712.13
2023-04-22T16:22:37.847Z,100707.03
2023-04-22T16:25:05.704Z,100703.59
2023-04-22T16:27:32.629Z,100701.25
2023-04-22T16:29:59.717Z,100692.44
2023-04-22T16:32:26.766Z,100685.84
2023-04-22T16:34:53.697Z,100694.59
2023-04-22T16:37:20.580Z,100688.59
2023-04-22T16:39:47.499Z,100689.59
2023-04-22T16:42:14.439Z,100691.31
2023-04-22T16:44:41.350Z,100695.56
2023-04-22T16:47:08.310Z,100690.13
2023-04-22T16:49:35.588Z,100689.22
2023-04-22T16:52:02.535Z,100691.78
2023-04-22T16:54:29.582Z,100686.31
2023-04-22T16:56:57.498Z,100694.13
2023-04-22T16:59:24.476Z,100682.53
2023-04-22T17:01:51.811Z,100694.75
2023-04-22T17:04:18.965Z,100691.94
2023-04-22T17:06:46.101Z,100679.59
2023-04-22T17:09:12.991Z,100681.41
2023-04-22T17:11:39.886Z,100680.84
2023-04-22T17:14:06.777Z,100684.44
2023-04-22T17:16:33.735Z,100677.78
2023-04-22T17:19:00.869Z,100677.16
2023-04-22T17:21:28.746Z,100673.25
2023-04-22T17:23:55.875Z,100673.03
2023-04-22T17:26:22.756Z,100678.53
2023-04-22T17:28:49.646Z,100678.19
2023-04-22T17:31:16.534Z,100674.34
2023-04-22T17:33:43.705Z,100673.09
2023-04-22T17:36:10.620Z,100668.25
2023-04-22T17:38:37.528Z,100667.09
2023-04-22T17:41:04.676Z,100665.75
2023-04-22T17:43:31.554Z,100667.03
2023-04-22T17:45:58.492Z,100659.78
2023-04-22T17:48:25.532Z,100660.94
2023-04-22T17:50:52.670Z,100662.31
2023-04-22T17:53:19.568Z,100668.88
2023-04-22T17:55:46.461Z,100661.41
2023-04-22T17:58:13.335Z,100666.19
2023-04-22T18:00:40.541Z,100665.63
2023-04-22T18:03:07.634Z,100660.75
2023-04-22T18:05:34.708Z,100666.44
2023-04-22T18:08:02.824Z,100667.69
2023-04-22T18:10:30.634Z,100657.47
2023-04-22T18:12:57.593Z,100665.75
2023-04-22T18:15:24.533Z,100661.69
2023-04-22T18:17:51.682Z,100656.66
2023-04-22T18:20:19.747Z,100660.50
2023-04-22T18:22:49.267Z,100659.91
2023-04-22T18:25:16.336Z,100668.19
2023-04-22T18:27:43.616Z,100662.38
2023-04-22T18:30:10.968Z,100664.34
2023-04-22T18:32:38.059Z,100660.41
2023-04-22T18:35:05.703Z,100669.16
2023-04-22T18:37:34.562Z,100672.97
2023-04-22T18:40:02.258Z,100675.91
2023-04-22T18:42:29.218Z,100674.53
2023-04-22T18:44:56.093Z,100682.66
2023-04-22T18:47:23.086Z,100677.72
2023-04-22T18:49:50.062Z,100684.00
2023-04-22T18:52:17.263Z,100690.41
2023-04-22T18:54:44.389Z,100697.69
2023-04-22T18:57:11.264Z,100687.34
2023-04-22T18:59:38.305Z,100682.25
2023-04-22T19:02:06.331Z,100685.13
2023-04-22T19:04:33.383Z,100685.34
2023-04-22T19:07:00.889Z,100683.75
2023-04-22T19:09:27.848Z,100684.81
2023-04-22T19:11:55.319Z,100675.44
2023-04-22T19:14:22.274Z,100671.16
2023-04-22T19:16:49.146Z,100680.13
2023-04-22T19:19:16.171Z,100670.69
2023-04-22T19:21:43.198Z,100673.38
2023-04-22T19:24:10.215Z,100664.03
2023-04-22T19:26:37.132Z,100669.41
2023-04-22T19:29:04.221Z,100666.91
2023-04-22T19:31:31.465Z,100661.91
2023-04-22T19:33:59.243Z,100671.63
2023-04-22T19:36:26.920Z,100665.63
2023-04-22T19:38:53.828Z,100667.53
2023-04-22T19:41:20.713Z,100658.97
2023-04-22T19:43:47.597Z,100662.56
2023-04-22T19:46:14.468Z,100658.38
2023-04-22T19:48:41.579Z,100654.16
2023-04-22T19:51:10.032Z,100661.38
2023-04-22T19:53:39.046Z,100650.13
2023-04-22T19:56:06.209Z,100647.69
2023-04-22T19:58:33.279Z,100634.78
2023-04-22T20:01:00.362Z,100637.41
2023-04-22T20:03:27.858Z,100634.97
2023-04-22T20:05:55.137Z,100639.50
2023-04-22T20:08:27.477Z,100632.63
2023-04-22T20:10:55.249Z,100626.63
2023-04-22T20:13:22.805Z,100620.59
2023-04-22T20:15:50.185Z,100625.09
2023-04-22T20:18:17.676Z,100626.97
2023-04-22T20:20:47.924Z,100625.38
2023-04-22T20:23:16.794Z,100621.13
2023-04-22T20:25:44.720Z,100617.66
2023-04-22T20:28:11.942Z,100613.31
2023-04-22T20:30:39.284Z,100612.56
2023-04-22T20:33:06.389Z,100617.00
2023-04-22T20:35:35.801Z,100611.00
2023-04-22T20:38:03.709Z,100606.69
2023-04-22T20:40:31.029Z,100598.91
2023-04-22T20:42:58.862Z,100605.16
2023-04-22T20:45:27.171Z,100604.38
2023-04-22T20:47:54.181Z,100595.69
2023-04-22T20:50:21.166Z,100602.81
2023-04-22T20:52:49.062Z,100598.47
2023-04-22T20:55:17.016Z,100598.59
2023-04-22T20:57:44.888Z,100594.28
2023-04-22T21:00:12.330Z,100589.97
2023-04-22T21:02:40.109Z,100593.56
2023-04-22T21:05:07.814Z,100596.28
2023-04-22T21:07:38.972Z,100579.78
2023-04-22T21:10:07.386Z,100584.94
2023-04-22T21:12:34.616Z,100583.25
2023-04-22T21:15:01.919Z,100578.94
2023-04-22T21:17:31.802Z,100579.06
2023-04-22T21:19:59.215Z,100586.13
2023-04-22T21:22:26.320Z,100574.88
2023-04-22T21:24:54.091Z,100580.97
2023-04-22T21:27:22.509Z,100581.88
2023-04-22T21:29:50.190Z,100580.28
2023-04-22T21:32:20.048Z,100571.56
2023-04-22T21:34:47.023Z,100572.38
2023-04-22T21:37:13.919Z,100572.41
2023-04-22T21:39:41.218Z,100572.44
2023-04-22T21:42:08.798Z,100565.50
2023-04-22T21:44:37.112Z,100561.13
2023-04-22T21:47:04.728Z,100568.13
2023-04-22T21:49:31.752Z,100556.84
2023-04-22T21:51:59.023Z,100564.63
2023-04-22T21:54:25.937Z,100555.06
2023-04-22T21:56:53.077Z,100557.69
2023-04-22T21:59:19.995Z,100555.97
2023-04-22T22:01:46.938Z,100556.00
2023-04-22T22:04:15.921Z,100556.94
2023-04-22T22:06:45.245Z,100559.59
2023-04-22T22:09:14.250Z,100565.78
2023-04-22T22:11:41.129Z,100562.25
2023-04-22T22:14:08.043Z,100545.72
2023-04-22T22:16:34.989Z,100553.56
2023-04-22T22:19:04.472Z,100551.91
2023-04-22T22:21:32.748Z,100558.09
2023-04-22T22:23:59.766Z,100547.66
2023-04-22T22:26:27.819Z,100559.13
2023-04-22T22:28:55.061Z,100550.44
2023-04-22T22:31:21.969Z,100552.31
2023-04-22T22:33:48.982Z,100530.59
2023-04-22T22:36:16.224Z,100535.81
2023-04-22T22:38:43.210Z,100537.53
2023-04-22T22:41:10.138Z,100542.84
2023-04-22T22:43:37.064Z,100539.34
2023-04-22T22:46:04.072Z,100541.13
2023-04-22T22:48:31.146Z,100540.34
2023-04-22T22:50:58.051Z,100538.66
2023-04-22T22:53:24.949Z,100536.91
2023-04-22T22:55:51.831Z,100529.97
2023-04-22T22:58:18.720Z,100529.97
2023-04-22T23:00:45.691Z,100525.63
2023-04-22T23:03:12.897Z,100523.88
2023-04-22T23:05:39.917Z,100516.88
2023-04-22T23:08:07.122Z,100512.53
2023-04-22T23:10:33.993Z,100508.16
2023-04-22T23:13:01.122Z,100516.13
2023-04-22T23:15:28.007Z,100508.25
2023-04-22T23:17:54.949Z,100502.13
2023-04-22T23:20:23.737Z,100503.06
2023-04-22T23:22:51.352Z,100493.41
2023-04-22T23:25:18.469Z,100489.97
2023-04-22T23:27:45.622Z,100498.75
2023-04-22T23:30:13.080Z,100488.22
2023-04-22T23:32:41.060Z,100483.84
2023-04-22T23:35:11.521Z,100486.53
2023-04-22T23:37:43.782Z,100479.59
2023-04-22T23:40:11.778Z,100476.97
2023-04-22T23:42:38.674Z,100474.38
2023-04-22T23:45:06.149Z,100474.38
2023-04-22T23:47:33.204Z,100472.69
2023-04-22T23:50:00.232Z,100469.19
2023-04-22T23:52:27.143Z,100469.19
2023-04-22T23:54:55.092Z,100463.09
2023-04-22T23:57:22.232Z,100453.59
2023-04-22T23:59:49.398Z,100449.19
